首页
METAR-TAF:

METAR-TAF

机场 :

羅蘭加洛斯機場

圣但尼, 留尼汪岛

纬度: 20-53S, 经度: 055-31E, 海拔: 21米

当前天气观测

该预报发布于12分钟前的00:00 UTC
风速5节,风向东南
温度 20°C
湿度 78%
气压 1019 hPa
能见度10公里或以上

METAR: FMEE 200000Z AUTO 14005KT 9999 NCD 20/16 Q1019 NOSIG

时间: 04:12 (00:12 UTC)

预报

该预报发布于1小时和12分钟前的23:00 UTC
预报有效从20日的 00点(UTC)到 21日的 06点(UTC)
风速5节,风向
能见度10公里或以上
散云层高于3000英尺
成为
从 20日的 04点(UTC)到 20日的 06点(UTC)
风速10节,风向
成为
从 20日的 14点(UTC)到 20日的 16点(UTC)
风速5节,风向
成为
从 21日的 04点(UTC)到 21日的 06点(UTC)
风速10节,风向

TAF: FMEE 192300Z 2000/2106 17005KT 9999 SCT030 BECMG 2004/2006 09010KT BECMG 2014/2016 17005KT BECMG 2104/2106 09010KT

超过4000个机场的气象观测和天气预报(METAR&TAF报告)。

可查询的气象台以黄色和红色小点在地图上表示。

将鼠标移到小点上方,可查看气象台名称。

然后点击查看天气观测和预报。

如需切换地图:点击带黑十字的绿色按钮放大地图;点击带横线的绿色按钮缩小地图;或者点击绿色箭头查看邻近地区的地图。


METAR-TAF: